sensor_id;sensor_type;location;lat;lon;timestamp;P1;durP1;ratioP1;P2;durP2;ratioP2
5277;SDS011;2662;51.194;6.614;2023-06-10T00:00:06;11.20;;;8.03;;
5277;SDS011;2662;51.194;6.614;2023-06-10T00:02:33;10.03;;;8.20;;
5277;SDS011;2662;51.194;6.614;2023-06-10T00:05:00;10.73;;;8.13;;
5277;SDS011;2662;51.194;6.614;2023-06-10T00:07:27;10.53;;;8.63;;
5277;SDS011;2662;51.194;6.614;2023-06-10T00:09:54;16.20;;;8.50;;
5277;SDS011;2662;51.194;6.614;2023-06-10T00:12:23;13.90;;;8.90;;
5277;SDS011;2662;51.194;6.614;2023-06-10T00:14:50;10.87;;;8.60;;
5277;SDS011;2662;51.194;6.614;2023-06-10T00:17:18;11.30;;;8.67;;
5277;SDS011;2662;51.194;6.614;2023-06-10T00:19:45;18.03;;;8.50;;
5277;SDS011;2662;51.194;6.614;2023-06-10T00:22:12;17.77;;;8.50;;
5277;SDS011;2662;51.194;6.614;2023-06-10T00:24:39;9.90;;;8.17;;
5277;SDS011;2662;51.194;6.614;2023-06-10T00:27:06;9.97;;;8.87;;
5277;SDS011;2662;51.194;6.614;2023-06-10T00:29:35;10.57;;;8.43;;
5277;SDS011;2662;51.194;6.614;2023-06-10T00:32:02;11.00;;;8.73;;
5277;SDS011;2662;51.194;6.614;2023-06-10T00:34:29;9.93;;;8.40;;
5277;SDS011;2662;51.194;6.614;2023-06-10T00:36:57;11.53;;;8.23;;
5277;SDS011;2662;51.194;6.614;2023-06-10T00:39:24;15.37;;;8.37;;
5277;SDS011;2662;51.194;6.614;2023-06-10T00:41:51;13.17;;;9.57;;
5277;SDS011;2662;51.194;6.614;2023-06-10T00:44:18;10.33;;;8.43;;
5277;SDS011;2662;51.194;6.614;2023-06-10T00:46:46;10.37;;;9.23;;
5277;SDS011;2662;51.194;6.614;2023-06-10T00:49:15;12.77;;;8.90;;
5277;SDS011;2662;51.194;6.614;2023-06-10T00:51:41;14.93;;;9.50;;
5277;SDS011;2662;51.194;6.614;2023-06-10T00:54:09;11.70;;;9.20;;
5277;SDS011;2662;51.194;6.614;2023-06-10T00:56:38;13.47;;;10.30;;
5277;SDS011;2662;51.194;6.614;2023-06-10T00:59:08;13.13;;;8.90;;
5277;SDS011;2662;51.194;6.614;2023-06-10T01:01:34;13.27;;;9.60;;
5277;SDS011;2662;51.194;6.614;2023-06-10T01:04:04;14.63;;;9.70;;
5277;SDS011;2662;51.194;6.614;2023-06-10T01:06:32;15.40;;;9.93;;
5277;SDS011;2662;51.194;6.614;2023-06-10T01:09:06;12.27;;;9.40;;
5277;SDS011;2662;51.194;6.614;2023-06-10T01:11:40;12.73;;;8.83;;
5277;SDS011;2662;51.194;6.614;2023-06-10T01:14:13;14.40;;;10.00;;
5277;SDS011;2662;51.194;6.614;2023-06-10T01:16:40;13.47;;;9.47;;
5277;SDS011;2662;51.194;6.614;2023-06-10T01:19:09;12.10;;;9.20;;
5277;SDS011;2662;51.194;6.614;2023-06-10T01:21:39;16.30;;;10.53;;
5277;SDS011;2662;51.194;6.614;2023-06-10T01:24:06;13.13;;;10.10;;
5277;SDS011;2662;51.194;6.614;2023-06-10T01:26:33;12.87;;;9.77;;
5277;SDS011;2662;51.194;6.614;2023-06-10T01:29:03;12.67;;;9.20;;
5277;SDS011;2662;51.194;6.614;2023-06-10T01:31:37;11.67;;;9.60;;
5277;SDS011;2662;51.194;6.614;2023-06-10T01:34:09;20.13;;;9.77;;
5277;SDS011;2662;51.194;6.614;2023-06-10T01:36:40;11.10;;;9.90;;
5277;SDS011;2662;51.194;6.614;2023-06-10T01:39:10;11.93;;;9.60;;
5277;SDS011;2662;51.194;6.614;2023-06-10T01:41:37;18.73;;;9.73;;
5277;SDS011;2662;51.194;6.614;2023-06-10T01:44:05;12.77;;;9.50;;
5277;SDS011;2662;51.194;6.614;2023-06-10T01:46:32;13.50;;;9.23;;
5277;SDS011;2662;51.194;6.614;2023-06-10T01:48:59;12.10;;;9.80;;
5277;SDS011;2662;51.194;6.614;2023-06-10T01:51:25;13.60;;;9.23;;
5277;SDS011;2662;51.194;6.614;2023-06-10T01:53:53;17.30;;;10.03;;
5277;SDS011;2662;51.194;6.614;2023-06-10T01:56:20;14.27;;;9.77;;
5277;SDS011;2662;51.194;6.614;2023-06-10T01:58:47;12.33;;;8.60;;
5277;SDS011;2662;51.194;6.614;2023-06-10T02:01:13;19.00;;;9.40;;
5277;SDS011;2662;51.194;6.614;2023-06-10T02:03:40;14.20;;;9.50;;
5277;SDS011;2662;51.194;6.614;2023-06-10T02:06:07;11.17;;;9.67;;
5277;SDS011;2662;51.194;6.614;2023-06-10T02:08:34;12.10;;;10.17;;
5277;SDS011;2662;51.194;6.614;2023-06-10T02:11:02;12.53;;;9.07;;
5277;SDS011;2662;51.194;6.614;2023-06-10T02:13:28;12.90;;;9.87;;
5277;SDS011;2662;51.194;6.614;2023-06-10T02:15:55;16.00;;;9.87;;
5277;SDS011;2662;51.194;6.614;2023-06-10T02:18:22;12.47;;;9.57;;
5277;SDS011;2662;51.194;6.614;2023-06-10T02:20:49;16.43;;;9.30;;
5277;SDS011;2662;51.194;6.614;2023-06-10T02:23:15;13.27;;;8.93;;
5277;SDS011;2662;51.194;6.614;2023-06-10T02:25:42;10.47;;;9.10;;
5277;SDS011;2662;51.194;6.614;2023-06-10T02:28:10;11.73;;;8.90;;
5277;SDS011;2662;51.194;6.614;2023-06-10T02:30:38;13.03;;;8.60;;
5277;SDS011;2662;51.194;6.614;2023-06-10T02:33:06;11.23;;;9.07;;
5277;SDS011;2662;51.194;6.614;2023-06-10T02:35:35;14.50;;;9.33;;
5277;SDS011;2662;51.194;6.614;2023-06-10T02:38:02;12.93;;;9.80;;
5277;SDS011;2662;51.194;6.614;2023-06-10T02:40:29;10.60;;;9.00;;
5277;SDS011;2662;51.194;6.614;2023-06-10T02:42:56;11.77;;;8.80;;
5277;SDS011;2662;51.194;6.614;2023-06-10T02:45:24;11.63;;;9.30;;
5277;SDS011;2662;51.194;6.614;2023-06-10T02:47:51;14.67;;;10.63;;
5277;SDS011;2662;51.194;6.614;2023-06-10T02:50:18;12.90;;;9.33;;
5277;SDS011;2662;51.194;6.614;2023-06-10T02:52:45;12.67;;;9.57;;
5277;SDS011;2662;51.194;6.614;2023-06-10T02:55:11;11.93;;;9.40;;
5277;SDS011;2662;51.194;6.614;2023-06-10T02:57:38;14.43;;;9.90;;
5277;SDS011;2662;51.194;6.614;2023-06-10T03:00:07;12.50;;;9.90;;
5277;SDS011;2662;51.194;6.614;2023-06-10T03:02:37;15.60;;;9.87;;
5277;SDS011;2662;51.194;6.614;2023-06-10T03:05:04;11.97;;;9.57;;
5277;SDS011;2662;51.194;6.614;2023-06-10T03:07:34;13.13;;;10.33;;
5277;SDS011;2662;51.194;6.614;2023-06-10T03:10:01;13.83;;;10.00;;
5277;SDS011;2662;51.194;6.614;2023-06-10T03:12:29;13.70;;;10.50;;
5277;SDS011;2662;51.194;6.614;2023-06-10T03:14:55;13.50;;;10.03;;
5277;SDS011;2662;51.194;6.614;2023-06-10T03:17:22;11.23;;;9.90;;
5277;SDS011;2662;51.194;6.614;2023-06-10T03:19:50;11.03;;;9.23;;
5277;SDS011;2662;51.194;6.614;2023-06-10T03:22:17;11.23;;;9.27;;
5277;SDS011;2662;51.194;6.614;2023-06-10T03:24:43;12.53;;;10.20;;
5277;SDS011;2662;51.194;6.614;2023-06-10T03:27:11;14.33;;;10.60;;
5277;SDS011;2662;51.194;6.614;2023-06-10T03:29:40;12.23;;;9.90;;
5277;SDS011;2662;51.194;6.614;2023-06-10T03:32:07;14.20;;;10.30;;
5277;SDS011;2662;51.194;6.614;2023-06-10T03:34:33;15.67;;;10.30;;
5277;SDS011;2662;51.194;6.614;2023-06-10T03:37:02;15.23;;;10.40;;
5277;SDS011;2662;51.194;6.614;2023-06-10T03:39:29;14.90;;;10.47;;
5277;SDS011;2662;51.194;6.614;2023-06-10T03:41:55;16.90;;;10.43;;
5277;SDS011;2662;51.194;6.614;2023-06-10T03:44:23;16.50;;;9.93;;
5277;SDS011;2662;51.194;6.614;2023-06-10T03:46:50;12.17;;;10.30;;
5277;SDS011;2662;51.194;6.614;2023-06-10T03:49:18;18.03;;;9.70;;
5277;SDS011;2662;51.194;6.614;2023-06-10T03:51:44;16.23;;;10.53;;
5277;SDS011;2662;51.194;6.614;2023-06-10T03:54:12;12.43;;;9.70;;
5277;SDS011;2662;51.194;6.614;2023-06-10T03:56:39;15.67;;;10.10;;
5277;SDS011;2662;51.194;6.614;2023-06-10T03:59:06;16.93;;;9.13;;
5277;SDS011;2662;51.194;6.614;2023-06-10T04:01:33;14.57;;;9.80;;
5277;SDS011;2662;51.194;6.614;2023-06-10T04:04:00;17.67;;;9.73;;
5277;SDS011;2662;51.194;6.614;2023-06-10T04:06:27;15.97;;;10.30;;
5277;SDS011;2662;51.194;6.614;2023-06-10T04:08:54;14.23;;;10.10;;
5277;SDS011;2662;51.194;6.614;2023-06-10T04:11:23;11.90;;;10.10;;
5277;SDS011;2662;51.194;6.614;2023-06-10T04:13:50;12.37;;;10.00;;
5277;SDS011;2662;51.194;6.614;2023-06-10T04:16:17;13.53;;;9.53;;
5277;SDS011;2662;51.194;6.614;2023-06-10T04:18:44;14.30;;;9.40;;
5277;SDS011;2662;51.194;6.614;2023-06-10T04:21:10;12.53;;;9.60;;
5277;SDS011;2662;51.194;6.614;2023-06-10T04:23:37;13.63;;;9.53;;
5277;SDS011;2662;51.194;6.614;2023-06-10T04:26:04;12.40;;;9.63;;
5277;SDS011;2662;51.194;6.614;2023-06-10T04:28:33;14.57;;;10.17;;
5277;SDS011;2662;51.194;6.614;2023-06-10T04:31:01;15.23;;;9.63;;
5277;SDS011;2662;51.194;6.614;2023-06-10T04:33:29;17.93;;;9.73;;
5277;SDS011;2662;51.194;6.614;2023-06-10T04:35:56;13.23;;;9.67;;
5277;SDS011;2662;51.194;6.614;2023-06-10T04:38:22;14.10;;;9.90;;
5277;SDS011;2662;51.194;6.614;2023-06-10T04:40:49;15.50;;;9.63;;
5277;SDS011;2662;51.194;6.614;2023-06-10T04:43:16;13.13;;;8.33;;
5277;SDS011;2662;51.194;6.614;2023-06-10T04:45:44;10.77;;;9.00;;
5277;SDS011;2662;51.194;6.614;2023-06-10T04:48:12;14.73;;;9.30;;
5277;SDS011;2662;51.194;6.614;2023-06-10T04:50:39;10.67;;;8.93;;
5277;SDS011;2662;51.194;6.614;2023-06-10T04:53:06;13.13;;;9.53;;
5277;SDS011;2662;51.194;6.614;2023-06-10T04:55:33;15.53;;;9.53;;
5277;SDS011;2662;51.194;6.614;2023-06-10T04:58:01;12.87;;;9.00;;
5277;SDS011;2662;51.194;6.614;2023-06-10T05:00:28;16.93;;;9.30;;
5277;SDS011;2662;51.194;6.614;2023-06-10T05:02:56;20.00;;;9.53;;
5277;SDS011;2662;51.194;6.614;2023-06-10T05:05:23;11.27;;;8.87;;
5277;SDS011;2662;51.194;6.614;2023-06-10T05:07:50;10.30;;;9.20;;
5277;SDS011;2662;51.194;6.614;2023-06-10T05:10:16;11.07;;;8.77;;
5277;SDS011;2662;51.194;6.614;2023-06-10T05:12:43;12.67;;;8.60;;
5277;SDS011;2662;51.194;6.614;2023-06-10T05:15:10;11.83;;;8.23;;
5277;SDS011;2662;51.194;6.614;2023-06-10T05:17:37;13.53;;;8.80;;
5277;SDS011;2662;51.194;6.614;2023-06-10T05:20:06;12.87;;;9.00;;
5277;SDS011;2662;51.194;6.614;2023-06-10T05:22:33;12.57;;;8.43;;
5277;SDS011;2662;51.194;6.614;2023-06-10T05:25:00;13.90;;;9.13;;
5277;SDS011;2662;51.194;6.614;2023-06-10T05:27:27;18.87;;;8.87;;
5277;SDS011;2662;51.194;6.614;2023-06-10T05:29:54;15.03;;;9.13;;
5277;SDS011;2662;51.194;6.614;2023-06-10T05:32:21;8.50;;;7.70;;
5277;SDS011;2662;51.194;6.614;2023-06-10T05:34:48;11.23;;;8.50;;
5277;SDS011;2662;51.194;6.614;2023-06-10T05:37:16;9.23;;;7.20;;
5277;SDS011;2662;51.194;6.614;2023-06-10T05:39:43;12.27;;;8.00;;
5277;SDS011;2662;51.194;6.614;2023-06-10T05:42:10;18.37;;;8.70;;
5277;SDS011;2662;51.194;6.614;2023-06-10T05:44:36;11.83;;;8.00;;
5277;SDS011;2662;51.194;6.614;2023-06-10T05:47:03;13.80;;;8.13;;
5277;SDS011;2662;51.194;6.614;2023-06-10T05:49:30;13.10;;;7.50;;
5277;SDS011;2662;51.194;6.614;2023-06-10T05:51:57;10.80;;;7.63;;
5277;SDS011;2662;51.194;6.614;2023-06-10T05:54:25;13.17;;;7.50;;
5277;SDS011;2662;51.194;6.614;2023-06-10T05:56:52;12.03;;;7.77;;
5277;SDS011;2662;51.194;6.614;2023-06-10T05:59:19;8.40;;;7.40;;
5277;SDS011;2662;51.194;6.614;2023-06-10T06:01:47;9.17;;;7.17;;
5277;SDS011;2662;51.194;6.614;2023-06-10T06:04:14;16.53;;;7.00;;
5277;SDS011;2662;51.194;6.614;2023-06-10T06:06:41;10.43;;;7.60;;
5277;SDS011;2662;51.194;6.614;2023-06-10T06:09:08;8.60;;;7.50;;
5277;SDS011;2662;51.194;6.614;2023-06-10T06:11:36;9.77;;;7.73;;
5277;SDS011;2662;51.194;6.614;2023-06-10T06:14:03;8.47;;;7.50;;
5277;SDS011;2662;51.194;6.614;2023-06-10T06:16:29;13.53;;;7.83;;
5277;SDS011;2662;51.194;6.614;2023-06-10T06:18:56;10.33;;;7.63;;
5277;SDS011;2662;51.194;6.614;2023-06-10T06:21:23;8.40;;;7.50;;
5277;SDS011;2662;51.194;6.614;2023-06-10T06:23:49;9.10;;;7.47;;
5277;SDS011;2662;51.194;6.614;2023-06-10T06:26:16;9.67;;;7.40;;
5277;SDS011;2662;51.194;6.614;2023-06-10T06:28:44;11.47;;;8.20;;
5277;SDS011;2662;51.194;6.614;2023-06-10T06:31:11;9.77;;;7.13;;
5277;SDS011;2662;51.194;6.614;2023-06-10T06:33:38;7.80;;;6.90;;
5277;SDS011;2662;51.194;6.614;2023-06-10T06:36:05;7.87;;;7.07;;
5277;SDS011;2662;51.194;6.614;2023-06-10T06:38:31;15.63;;;6.43;;
5277;SDS011;2662;51.194;6.614;2023-06-10T06:40:58;9.53;;;6.53;;
5277;SDS011;2662;51.194;6.614;2023-06-10T06:43:28;19.53;;;7.30;;
5277;SDS011;2662;51.194;6.614;2023-06-10T06:45:56;7.00;;;6.30;;
5277;SDS011;2662;51.194;6.614;2023-06-10T06:48:23;8.27;;;6.80;;
5277;SDS011;2662;51.194;6.614;2023-06-10T06:50:50;9.00;;;6.40;;
5277;SDS011;2662;51.194;6.614;2023-06-10T06:53:17;8.03;;;6.73;;
5277;SDS011;2662;51.194;6.614;2023-06-10T06:55:44;8.40;;;6.77;;
5277;SDS011;2662;51.194;6.614;2023-06-10T06:58:10;7.00;;;6.40;;
5277;SDS011;2662;51.194;6.614;2023-06-10T07:00:37;10.03;;;6.47;;
5277;SDS011;2662;51.194;6.614;2023-06-10T07:03:05;7.13;;;6.43;;
5277;SDS011;2662;51.194;6.614;2023-06-10T07:05:32;6.90;;;6.30;;
5277;SDS011;2662;51.194;6.614;2023-06-10T07:07:58;6.70;;;6.17;;
5277;SDS011;2662;51.194;6.614;2023-06-10T07:10:25;8.13;;;5.90;;
5277;SDS011;2662;51.194;6.614;2023-06-10T07:12:52;6.37;;;5.80;;
5277;SDS011;2662;51.194;6.614;2023-06-10T07:15:20;7.73;;;6.10;;
5277;SDS011;2662;51.194;6.614;2023-06-10T07:17:47;7.97;;;6.27;;
5277;SDS011;2662;51.194;6.614;2023-06-10T07:20:15;7.47;;;6.57;;
5277;SDS011;2662;51.194;6.614;2023-06-10T07:22:43;9.20;;;6.10;;
5277;SDS011;2662;51.194;6.614;2023-06-10T07:25:09;6.90;;;6.10;;
5277;SDS011;2662;51.194;6.614;2023-06-10T07:27:36;7.50;;;6.80;;
5277;SDS011;2662;51.194;6.614;2023-06-10T07:30:03;6.07;;;5.57;;
5277;SDS011;2662;51.194;6.614;2023-06-10T07:32:33;6.70;;;5.97;;
5277;SDS011;2662;51.194;6.614;2023-06-10T07:34:59;6.77;;;5.40;;
5277;SDS011;2662;51.194;6.614;2023-06-10T07:37:27;7.60;;;5.87;;
5277;SDS011;2662;51.194;6.614;2023-06-10T07:39:54;10.97;;;6.30;;
5277;SDS011;2662;51.194;6.614;2023-06-10T07:42:22;6.57;;;5.87;;
5277;SDS011;2662;51.194;6.614;2023-06-10T07:44:48;9.20;;;5.90;;
5277;SDS011;2662;51.194;6.614;2023-06-10T07:47:15;7.93;;;5.47;;
5277;SDS011;2662;51.194;6.614;2023-06-10T07:49:42;6.80;;;5.40;;
5277;SDS011;2662;51.194;6.614;2023-06-10T07:52:08;8.47;;;5.97;;
5277;SDS011;2662;51.194;6.614;2023-06-10T07:54:37;11.30;;;5.70;;
5277;SDS011;2662;51.194;6.614;2023-06-10T07:57:03;10.67;;;5.90;;
5277;SDS011;2662;51.194;6.614;2023-06-10T07:59:31;6.17;;;5.57;;
5277;SDS011;2662;51.194;6.614;2023-06-10T08:01:58;10.30;;;6.17;;
5277;SDS011;2662;51.194;6.614;2023-06-10T08:04:25;12.37;;;5.60;;
5277;SDS011;2662;51.194;6.614;2023-06-10T08:06:51;7.23;;;5.77;;
5277;SDS011;2662;51.194;6.614;2023-06-10T08:09:18;7.00;;;5.70;;
5277;SDS011;2662;51.194;6.614;2023-06-10T08:11:47;8.40;;;5.90;;
5277;SDS011;2662;51.194;6.614;2023-06-10T08:14:15;6.47;;;5.60;;
5277;SDS011;2662;51.194;6.614;2023-06-10T08:16:42;8.70;;;5.70;;
5277;SDS011;2662;51.194;6.614;2023-06-10T08:19:09;6.30;;;5.63;;
5277;SDS011;2662;51.194;6.614;2023-06-10T08:21:36;6.20;;;5.60;;
5277;SDS011;2662;51.194;6.614;2023-06-10T08:24:04;11.80;;;6.20;;
5277;SDS011;2662;51.194;6.614;2023-06-10T08:26:31;7.90;;;6.13;;
5277;SDS011;2662;51.194;6.614;2023-06-10T08:28:59;6.27;;;5.67;;
5277;SDS011;2662;51.194;6.614;2023-06-10T08:31:26;10.03;;;5.10;;
5277;SDS011;2662;51.194;6.614;2023-06-10T08:33:53;6.83;;;6.00;;
5277;SDS011;2662;51.194;6.614;2023-06-10T08:36:20;7.33;;;6.30;;
5277;SDS011;2662;51.194;6.614;2023-06-10T08:38:46;6.53;;;6.03;;
5277;SDS011;2662;51.194;6.614;2023-06-10T08:41:14;9.10;;;6.20;;
5277;SDS011;2662;51.194;6.614;2023-06-10T08:43:46;7.67;;;6.20;;
5277;SDS011;2662;51.194;6.614;2023-06-10T08:46:21;6.77;;;5.93;;
5277;SDS011;2662;51.194;6.614;2023-06-10T08:48:48;9.40;;;6.07;;
5277;SDS011;2662;51.194;6.614;2023-06-10T08:51:17;6.20;;;5.60;;
5277;SDS011;2662;51.194;6.614;2023-06-10T08:53:46;8.20;;;6.40;;
5277;SDS011;2662;51.194;6.614;2023-06-10T08:56:18;6.13;;;5.63;;
5277;SDS011;2662;51.194;6.614;2023-06-10T08:58:47;10.50;;;5.67;;
5277;SDS011;2662;51.194;6.614;2023-06-10T09:01:14;7.33;;;6.20;;
5277;SDS011;2662;51.194;6.614;2023-06-10T09:03:43;6.87;;;5.97;;
5277;SDS011;2662;51.194;6.614;2023-06-10T09:06:10;7.33;;;5.80;;
5277;SDS011;2662;51.194;6.614;2023-06-10T09:08:36;9.73;;;6.20;;
5277;SDS011;2662;51.194;6.614;2023-06-10T09:11:04;7.00;;;6.30;;
5277;SDS011;2662;51.194;6.614;2023-06-10T09:13:31;5.60;;;5.20;;
5277;SDS011;2662;51.194;6.614;2023-06-10T09:15:58;8.00;;;6.00;;
5277;SDS011;2662;51.194;6.614;2023-06-10T09:18:27;6.93;;;6.23;;
5277;SDS011;2662;51.194;6.614;2023-06-10T09:20:55;10.23;;;6.00;;
5277;SDS011;2662;51.194;6.614;2023-06-10T09:23:22;11.13;;;7.00;;
5277;SDS011;2662;51.194;6.614;2023-06-10T09:25:55;7.87;;;6.13;;
5277;SDS011;2662;51.194;6.614;2023-06-10T09:28:22;7.10;;;6.20;;
5277;SDS011;2662;51.194;6.614;2023-06-10T09:30:49;9.03;;;6.50;;
5277;SDS011;2662;51.194;6.614;2023-06-10T09:33:16;8.30;;;6.10;;
5277;SDS011;2662;51.194;6.614;2023-06-10T09:35:46;6.47;;;5.77;;
5277;SDS011;2662;51.194;6.614;2023-06-10T09:38:15;9.63;;;6.60;;
5277;SDS011;2662;51.194;6.614;2023-06-10T09:40:49;7.57;;;6.87;;
5277;SDS011;2662;51.194;6.614;2023-06-10T09:43:17;8.53;;;6.67;;
5277;SDS011;2662;51.194;6.614;2023-06-10T09:45:44;7.60;;;6.83;;
5277;SDS011;2662;51.194;6.614;2023-06-10T09:48:14;7.40;;;6.57;;
5277;SDS011;2662;51.194;6.614;2023-06-10T09:50:44;7.87;;;6.37;;
5277;SDS011;2662;51.194;6.614;2023-06-10T09:53:12;11.40;;;6.57;;
5277;SDS011;2662;51.194;6.614;2023-06-10T09:55:41;9.63;;;6.90;;
5277;SDS011;2662;51.194;6.614;2023-06-10T09:58:08;7.07;;;6.37;;
5277;SDS011;2662;51.194;6.614;2023-06-10T10:00:35;7.47;;;6.50;;
5277;SDS011;2662;51.194;6.614;2023-06-10T10:03:02;9.27;;;7.07;;
5277;SDS011;2662;51.194;6.614;2023-06-10T10:05:31;6.70;;;6.00;;
5277;SDS011;2662;51.194;6.614;2023-06-10T10:07:58;6.63;;;6.03;;
5277;SDS011;2662;51.194;6.614;2023-06-10T10:10:25;7.37;;;6.60;;
5277;SDS011;2662;51.194;6.614;2023-06-10T10:12:54;13.37;;;6.70;;
5277;SDS011;2662;51.194;6.614;2023-06-10T10:15:22;8.60;;;6.10;;
5277;SDS011;2662;51.194;6.614;2023-06-10T10:17:52;7.17;;;6.63;;
5277;SDS011;2662;51.194;6.614;2023-06-10T10:20:27;6.67;;;6.07;;
5277;SDS011;2662;51.194;6.614;2023-06-10T10:22:57;6.80;;;6.10;;
5277;SDS011;2662;51.194;6.614;2023-06-10T10:25:26;7.80;;;7.10;;
5277;SDS011;2662;51.194;6.614;2023-06-10T10:27:56;8.53;;;6.83;;
5277;SDS011;2662;51.194;6.614;2023-06-10T10:30:28;6.50;;;5.90;;
5277;SDS011;2662;51.194;6.614;2023-06-10T10:32:57;10.70;;;6.60;;
5277;SDS011;2662;51.194;6.614;2023-06-10T10:35:26;6.90;;;6.33;;
5277;SDS011;2662;51.194;6.614;2023-06-10T10:37:53;9.00;;;6.60;;
5277;SDS011;2662;51.194;6.614;2023-06-10T10:40:21;7.63;;;5.83;;
5277;SDS011;2662;51.194;6.614;2023-06-10T10:42:49;7.10;;;6.40;;
5277;SDS011;2662;51.194;6.614;2023-06-10T10:45:18;12.27;;;6.30;;
5277;SDS011;2662;51.194;6.614;2023-06-10T10:47:45;13.10;;;6.30;;
5277;SDS011;2662;51.194;6.614;2023-06-10T10:50:12;10.50;;;6.47;;
5277;SDS011;2662;51.194;6.614;2023-06-10T10:55:25;7.63;;;6.63;;
5277;SDS011;2662;51.194;6.614;2023-06-10T10:57:56;9.67;;;6.80;;
5277;SDS011;2662;51.194;6.614;2023-06-10T11:00:31;9.73;;;5.93;;
5277;SDS011;2662;51.194;6.614;2023-06-10T11:02:59;13.73;;;6.20;;
5277;SDS011;2662;51.194;6.614;2023-06-10T11:05:32;7.43;;;6.63;;
5277;SDS011;2662;51.194;6.614;2023-06-10T11:08:03;6.13;;;5.60;;
5277;SDS011;2662;51.194;6.614;2023-06-10T11:10:31;8.47;;;6.30;;
5277;SDS011;2662;51.194;6.614;2023-06-10T11:12:59;6.43;;;5.83;;
5277;SDS011;2662;51.194;6.614;2023-06-10T11:15:28;7.40;;;6.40;;
5277;SDS011;2662;51.194;6.614;2023-06-10T11:18:13;8.03;;;6.30;;
5277;SDS011;2662;51.194;6.614;2023-06-10T11:20:57;6.73;;;5.93;;
5277;SDS011;2662;51.194;6.614;2023-06-10T11:23:25;15.40;;;6.50;;
5277;SDS011;2662;51.194;6.614;2023-06-10T11:26:11;8.63;;;6.40;;
5277;SDS011;2662;51.194;6.614;2023-06-10T11:31:44;7.40;;;6.70;;
5277;SDS011;2662;51.194;6.614;2023-06-10T11:34:13;6.83;;;6.13;;
5277;SDS011;2662;51.194;6.614;2023-06-10T11:36:42;8.60;;;6.43;;
5277;SDS011;2662;51.194;6.614;2023-06-10T11:39:10;9.10;;;7.43;;
5277;SDS011;2662;51.194;6.614;2023-06-10T11:41:38;8.20;;;7.23;;
5277;SDS011;2662;51.194;6.614;2023-06-10T11:44:09;10.70;;;7.00;;
5277;SDS011;2662;51.194;6.614;2023-06-10T11:46:37;13.80;;;6.70;;
5277;SDS011;2662;51.194;6.614;2023-06-10T11:49:04;7.47;;;6.33;;
5277;SDS011;2662;51.194;6.614;2023-06-10T11:51:34;8.17;;;6.83;;
5277;SDS011;2662;51.194;6.614;2023-06-10T11:54:02;13.10;;;6.90;;
5277;SDS011;2662;51.194;6.614;2023-06-10T11:56:29;7.33;;;6.60;;
5277;SDS011;2662;51.194;6.614;2023-06-10T11:58:57;9.87;;;7.00;;
5277;SDS011;2662;51.194;6.614;2023-06-10T12:01:29;13.07;;;7.10;;
5277;SDS011;2662;51.194;6.614;2023-06-10T12:03:57;13.00;;;6.53;;
5277;SDS011;2662;51.194;6.614;2023-06-10T12:06:25;9.47;;;6.50;;
5277;SDS011;2662;51.194;6.614;2023-06-10T12:08:53;9.23;;;6.33;;
5277;SDS011;2662;51.194;6.614;2023-06-10T12:11:20;11.40;;;6.30;;
5277;SDS011;2662;51.194;6.614;2023-06-10T12:13:48;7.17;;;6.40;;
5277;SDS011;2662;51.194;6.614;2023-06-10T12:16:16;7.80;;;6.90;;
5277;SDS011;2662;51.194;6.614;2023-06-10T12:18:44;11.07;;;6.63;;
5277;SDS011;2662;51.194;6.614;2023-06-10T12:21:20;10.13;;;6.23;;
5277;SDS011;2662;51.194;6.614;2023-06-10T12:24:01;11.10;;;6.80;;
5277;SDS011;2662;51.194;6.614;2023-06-10T12:26:33;8.20;;;6.90;;
5277;SDS011;2662;51.194;6.614;2023-06-10T12:29:02;8.50;;;7.03;;
5277;SDS011;2662;51.194;6.614;2023-06-10T12:31:51;8.17;;;6.67;;
5277;SDS011;2662;51.194;6.614;2023-06-10T12:34:19;11.07;;;6.40;;
5277;SDS011;2662;51.194;6.614;2023-06-10T12:36:47;9.60;;;6.23;;
5277;SDS011;2662;51.194;6.614;2023-06-10T12:39:15;8.20;;;6.57;;
5277;SDS011;2662;51.194;6.614;2023-06-10T12:41:46;11.37;;;8.27;;
5277;SDS011;2662;51.194;6.614;2023-06-10T12:44:13;10.40;;;7.10;;
5277;SDS011;2662;51.194;6.614;2023-06-10T12:46:40;22.20;;;8.77;;
5277;SDS011;2662;51.194;6.614;2023-06-10T12:49:07;16.40;;;8.67;;
5277;SDS011;2662;51.194;6.614;2023-06-10T12:51:34;22.67;;;9.80;;
5277;SDS011;2662;51.194;6.614;2023-06-10T12:54:02;11.50;;;8.50;;
5277;SDS011;2662;51.194;6.614;2023-06-10T12:56:30;12.93;;;8.60;;
5277;SDS011;2662;51.194;6.614;2023-06-10T12:58:57;13.50;;;9.00;;
5277;SDS011;2662;51.194;6.614;2023-06-10T13:01:23;19.00;;;9.40;;
5277;SDS011;2662;51.194;6.614;2023-06-10T13:03:51;11.73;;;8.73;;
5277;SDS011;2662;51.194;6.614;2023-06-10T13:06:18;11.43;;;8.87;;
5277;SDS011;2662;51.194;6.614;2023-06-10T13:08:45;11.23;;;8.37;;
5277;SDS011;2662;51.194;6.614;2023-06-10T13:11:12;14.20;;;9.10;;
5277;SDS011;2662;51.194;6.614;2023-06-10T13:13:40;10.73;;;8.17;;
5277;SDS011;2662;51.194;6.614;2023-06-10T13:16:07;10.50;;;7.57;;
5277;SDS011;2662;51.194;6.614;2023-06-10T13:18:34;10.50;;;8.13;;
5277;SDS011;2662;51.194;6.614;2023-06-10T13:21:03;14.13;;;8.73;;
5277;SDS011;2662;51.194;6.614;2023-06-10T13:23:30;10.90;;;8.00;;
5277;SDS011;2662;51.194;6.614;2023-06-10T13:25:57;15.57;;;7.87;;
5277;SDS011;2662;51.194;6.614;2023-06-10T13:28:24;14.00;;;8.50;;
5277;SDS011;2662;51.194;6.614;2023-06-10T13:30:52;10.83;;;7.90;;
5277;SDS011;2662;51.194;6.614;2023-06-10T13:33:18;11.10;;;7.50;;
5277;SDS011;2662;51.194;6.614;2023-06-10T13:35:46;8.87;;;7.40;;
5277;SDS011;2662;51.194;6.614;2023-06-10T13:38:13;9.70;;;7.73;;
5277;SDS011;2662;51.194;6.614;2023-06-10T13:40:39;8.67;;;7.00;;
5277;SDS011;2662;51.194;6.614;2023-06-10T13:43:06;12.03;;;7.43;;
5277;SDS011;2662;51.194;6.614;2023-06-10T13:45:34;10.80;;;7.17;;
5277;SDS011;2662;51.194;6.614;2023-06-10T13:48:03;7.10;;;6.40;;
5277;SDS011;2662;51.194;6.614;2023-06-10T13:50:30;9.43;;;7.40;;
5277;SDS011;2662;51.194;6.614;2023-06-10T13:52:57;9.23;;;7.40;;
5277;SDS011;2662;51.194;6.614;2023-06-10T13:55:24;7.73;;;7.03;;
5277;SDS011;2662;51.194;6.614;2023-06-10T13:57:51;7.50;;;6.80;;
5277;SDS011;2662;51.194;6.614;2023-06-10T14:00:18;10.13;;;6.57;;
5277;SDS011;2662;51.194;6.614;2023-06-10T14:02:45;12.07;;;6.50;;
5277;SDS011;2662;51.194;6.614;2023-06-10T14:05:13;10.23;;;6.97;;
5277;SDS011;2662;51.194;6.614;2023-06-10T14:07:40;7.70;;;6.60;;
5277;SDS011;2662;51.194;6.614;2023-06-10T14:10:07;10.40;;;7.20;;
5277;SDS011;2662;51.194;6.614;2023-06-10T14:12:35;8.63;;;6.87;;
5277;SDS011;2662;51.194;6.614;2023-06-10T14:15:02;9.53;;;7.27;;
5277;SDS011;2662;51.194;6.614;2023-06-10T14:17:29;18.63;;;7.37;;
5277;SDS011;2662;51.194;6.614;2023-06-10T14:19:56;13.63;;;7.73;;
5277;SDS011;2662;51.194;6.614;2023-06-10T14:22:24;7.90;;;7.10;;
5277;SDS011;2662;51.194;6.614;2023-06-10T14:24:50;14.40;;;7.33;;
5277;SDS011;2662;51.194;6.614;2023-06-10T14:27:17;8.60;;;6.80;;
5277;SDS011;2662;51.194;6.614;2023-06-10T14:29:44;8.70;;;7.40;;
5277;SDS011;2662;51.194;6.614;2023-06-10T14:32:10;7.70;;;6.63;;
5277;SDS011;2662;51.194;6.614;2023-06-10T14:34:37;9.40;;;6.67;;
5277;SDS011;2662;51.194;6.614;2023-06-10T14:37:04;11.67;;;6.77;;
5277;SDS011;2662;51.194;6.614;2023-06-10T14:39:33;9.73;;;6.23;;
5277;SDS011;2662;51.194;6.614;2023-06-10T14:42:01;9.13;;;6.97;;
5277;SDS011;2662;51.194;6.614;2023-06-10T14:44:27;8.60;;;7.23;;
5277;SDS011;2662;51.194;6.614;2023-06-10T14:46:54;10.23;;;6.87;;
5277;SDS011;2662;51.194;6.614;2023-06-10T14:49:21;9.73;;;7.00;;
5277;SDS011;2662;51.194;6.614;2023-06-10T14:51:48;7.43;;;6.47;;
5277;SDS011;2662;51.194;6.614;2023-06-10T14:54:15;16.20;;;7.00;;
5277;SDS011;2662;51.194;6.614;2023-06-10T14:56:43;10.43;;;6.80;;
5277;SDS011;2662;51.194;6.614;2023-06-10T14:59:10;10.87;;;6.90;;
5277;SDS011;2662;51.194;6.614;2023-06-10T15:01:36;9.17;;;6.70;;
5277;SDS011;2662;51.194;6.614;2023-06-10T15:04:03;6.90;;;6.27;;
5277;SDS011;2662;51.194;6.614;2023-06-10T15:06:30;6.43;;;5.83;;
5277;SDS011;2662;51.194;6.614;2023-06-10T15:08:57;8.73;;;6.40;;
5277;SDS011;2662;51.194;6.614;2023-06-10T15:11:23;12.70;;;6.90;;
5277;SDS011;2662;51.194;6.614;2023-06-10T15:13:52;11.80;;;6.70;;